Alpine Moment — VREV7 — position and weather

sailwx.info

Track history (hours):
 
Tides and Currents Weather Stations Pressure Air Temp Water Temp Dewpoint Dewpoint Depression Visibility Wind Speed Wind Dir Waves Ship Positions

Alpine Moment

Last reported at 2014-Jun-14 21:06 UTC. Time now 2014-Jul-26 11:14 UTC.
Position N 25°57' E 056°45'.
Warning: this ship's position is 41 days out of date.

Length 183 m; draft 6.7 m.

Type: Tanker. MMSI: 477185800.

Date/timePositionNaut miles runAvg speedWind from/ knotsBaromVisibWave heightAir tempDewpointWater temp
2014-Jun-14 21:06N 25°57' E 056°45'7910.4
2014-Jun-14 13:33N 26°07' E 055°18'1413.8
2014-Jun-14 12:32N 26°08' E 055°02'2814.1
2014-Jun-14 10:33N 26°11' E 054°31'4214.1
2014-Jun-14 07:33N 26°20' E 053°46'3415.0
2014-Jun-14 05:19N 26°32' E 053°11'1615.3
2014-Jun-14 04:15N 26°41' E 052°56'  
2014-Jun-06 14:19N 27°20' E 051°29'1213.4
2014-Jun-06 13:24N 27°16' E 051°42'20613.8
2014-Jun-05 22:26N 25°12' E 054°46'1311.4
2014-Jun-05 21:18N 25°06' E 054°58'810.0
2014-Jun-05 20:32N 25°00' E 055°04'  
Track history (hours):
 
Tides and Currents Weather Stations Pressure Air Temp Water Temp Dewpoint Dewpoint Depression Visibility Wind Speed Wind Dir Waves Ship Positions

Alpine Moment

Last reported at 2014-Jun-14 21:06 UTC. Time now 2014-Jul-26 11:14 UTC.
Position N 25°57' E 056°45'.
Warning: this ship's position is 41 days out of date.

Length 183 m; draft 6.7 m.

Type: Tanker. MMSI: 477185800.

Date/timePositionNaut miles runAvg speedWind from/ knotsBaromVisibWave heightAir tempDewpointWater temp
2014-Jun-14 21:06N 25°57' E 056°45'7910.4
2014-Jun-14 13:33N 26°07' E 055°18'1413.8
2014-Jun-14 12:32N 26°08' E 055°02'2814.1
2014-Jun-14 10:33N 26°11' E 054°31'4214.1
2014-Jun-14 07:33N 26°20' E 053°46'3415.0
2014-Jun-14 05:19N 26°32' E 053°11'1615.3
2014-Jun-14 04:15N 26°41' E 052°56'  
2014-Jun-06 14:19N 27°20' E 051°29'1213.4
2014-Jun-06 13:24N 27°16' E 051°42'20613.8
2014-Jun-05 22:26N 25°12' E 054°46'1311.4
2014-Jun-05 21:18N 25°06' E 054°58'810.0
2014-Jun-05 20:32N 25°00' E 055°04'  

Dump ship's entire track history